NOAA Web Site Link Tides and Currents Home Page Transparent placeholder image

PORTS® Data Listing: 8548989 Newbold, PA

CO-OPS RAW PORTS DATA

************************      PRELIMINARY DATA      ************************** 

     THIS RAW DATA HAS NOT BEEN SUBJECT TO THE NATIONAL OCEAN SERVICE'S        
     QUALITY CONTROL OR QUALITY ASSURANCE PROCEDURES AND DOES NOT MEET         
     THE CRITERIA AND STANDARDS OF OFFICIAL NATIONAL OCEAN SERVICE             
     DATA.  IT IS RELEASED FOR LIMITED PUBLIC USE AS PRELIMINARY DATA TO       
     BE USED ONLY WITH APPROPRIATE CAUTION.                                    

************************      PRELIMINARY DATA      ************************** 


       CD   -   Calendar date
       T    -   Time
       TZ   -   Timezone
       PW   -   Predicted water level (feet above MLLW)
       OW   -   Observed water level (feet above MLLW)
       WS   -   Wind speed (knots)
       WD   -   Wind direction (degrees true)
       WG   -   Wind gust (knots)
       AT   -   Air temperature (degrees farenheit)
       WT   -   Water temperature (degrees farenheit)
       AP   -   Air pressure (millibars)
       SA   -   Salinty (PSU - Practical Salinity Units)
       SG   -   Specific gravity
       RH   -   Relative humidity
       AG   -   Air gap (feet)
       VI   -   Visibility (nautical miles)

       ** NOTE **
       A variable that has its data fields filled with "9"s, indicates that
       data was not collected for that sample period.
       **********


STATION NAME: Newbold (8548989)
****************************************************************************************************
    CD       T    TZ    PW     OW    WS   WD   WG    AT    WT    AP    SA    SG     RH    AG   VI
****************************************************************************************************
2018/09/23 21:54 EDT    0.90   1.04    2   60    3  61.2  66.6 1025.5 -9.9 -9.999 -99.9 -99.99 -9.99
2018/09/23 22:00 EDT    1.01   1.11    2   71    3  61.2  66.6 1025.6 -9.9 -9.999 -99.9 -99.99 -9.99
2018/09/23 22:06 EDT    1.15   1.23    3   70    5  61.2  66.6 1025.7 -9.9 -9.999 -99.9 -99.99 -9.99
2018/09/23 22:12 EDT    1.30   1.45    4   88    5  61.2  66.4 1025.8 -9.9 -9.999 -99.9 -99.99 -9.99
2018/09/23 22:18 EDT    1.47   1.73    3  110    4  61.5  66.4 1025.8 -9.9 -9.999 -99.9 -99.99 -9.99
2018/09/23 22:24 EDT    1.65   2.04    4   78    6  61.5  66.4 1025.8 -9.9 -9.999 -99.9 -99.99 -9.99
2018/09/23 22:30 EDT    1.86   2.35    4   69    7  61.5  66.4 1025.9 -9.9 -9.999 -99.9 -99.99 -9.99
2018/09/23 22:36 EDT    2.08   2.64    6   80    7  61.7  66.4 1026.0 -9.9 -9.999 -99.9 -99.99 -9.99
2018/09/23 22:42 EDT    2.31   2.92    4   86    6  61.5  66.4 1025.9 -9.9 -9.999 -99.9 -99.99 -9.99
2018/09/23 22:48 EDT    2.55   3.20    4  105    7  61.7  66.4 1026.0 -9.9 -9.999 -99.9 -99.99 -9.99
2018/09/23 22:54 EDT    2.80   3.48    2   96    4  61.5  66.2 1026.0 -9.9 -9.999 -99.9 -99.99 -9.99
2018/09/23 23:00 EDT    3.06   3.78    3  111    4  61.7  66.2 1026.0 -9.9 -9.999 -99.9 -99.99 -9.99
2018/09/23 23:06 EDT    3.32   4.09    3  116    5  61.5  66.2 1025.9 -9.9 -9.999 -99.9 -99.99 -9.99
2018/09/23 23:12 EDT    3.58   4.40    4  109    5  61.5  66.2 1025.9 -9.9 -9.999 -99.9 -99.99 -9.99
2018/09/23 23:18 EDT    3.85   4.74    2  100    5  61.5  66.0 1026.0 -9.9 -9.999 -99.9 -99.99 -9.99
2018/09/23 23:24 EDT    4.11   5.06    3   98    5  61.5  66.0 1026.0 -9.9 -9.999 -99.9 -99.99 -9.99
2018/09/23 23:30 EDT    4.37   5.36    3   87    5  61.5  66.0 1026.1 -9.9 -9.999 -99.9 -99.99 -9.99
2018/09/23 23:36 EDT    4.63   5.62    3  110    4  61.7  66.0 1026.1 -9.9 -9.999 -99.9 -99.99 -9.99
2018/09/23 23:42 EDT    4.87   5.85    2  135    4  61.5  66.0 1026.1 -9.9 -9.999 -99.9 -99.99 -9.99
2018/09/23 23:48 EDT    5.11   6.07    3  113    5  61.7  66.0 1026.1 -9.9 -9.999 -99.9 -99.99 -9.99
2018/09/23 23:54 EDT    5.34   6.26    3  103    6  61.7  65.8 1026.2 -9.9 -9.999 -99.9 -99.99 -9.99
2018/09/24 00:00 EDT    5.56   6.45    3  109    6  61.7  65.8 1026.3 -9.9 -9.999 -99.9 -99.99 -9.99
2018/09/24 00:06 EDT    5.77   6.63    2  126    5  61.5  65.8 1026.3 -9.9 -9.999 -99.9 -99.99 -9.99
2018/09/24 00:12 EDT    5.97   6.80    3  130    5  61.5  65.8 1026.1 -9.9 -9.999 -99.9 -99.99 -9.99
2018/09/24 00:18 EDT    6.16   6.98    3  114    6  61.5  65.8 1026.2 -9.9 -9.999 -99.9 -99.99 -9.99
2018/09/24 00:24 EDT    6.34   7.14    3  128    4  61.5  65.8 1026.2 -9.9 -9.999 -99.9 -99.99 -9.99
2018/09/24 00:30 EDT    6.51   7.29    3  116    6  61.3  65.7 1026.3 -9.9 -9.999 -99.9 -99.99 -9.99
2018/09/24 00:36 EDT    6.67   7.45    4  110    5  61.3  65.7 1026.4 -9.9 -9.999 -99.9 -99.99 -9.99
2018/09/24 00:42 EDT    6.82   7.60    3  124    5  61.2  65.7 1026.3 -9.9 -9.999 -99.9 -99.99 -9.99
2018/09/24 00:48 EDT    6.96   7.74    3  121    7  61.3  65.7 1026.2 -9.9 -9.999 -99.9 -99.99 -9.99
2018/09/24 00:54 EDT    7.10   7.86    3  108    5  61.3  65.7 1026.3 -9.9 -9.999 -99.9 -99.99 -9.99
2018/09/24 01:00 EDT    7.23   8.01    3  108    6  61.2  65.7 1026.3 -9.9 -9.999 -99.9 -99.99 -9.99
2018/09/24 01:06 EDT    7.36   8.13    3  113    5  61.2  65.7 1026.3 -9.9 -9.999 -99.9 -99.99 -9.99
2018/09/24 01:12 EDT    7.48   8.25    4   94    5  61.2  65.7 1026.3 -9.9 -9.999 -99.9 -99.99 -9.99
2018/09/24 01:18 EDT    7.59   8.36    3  119    5  61.2  65.7 1026.2 -9.9 -9.999 -99.9 -99.99 -9.99
2018/09/24 01:24 EDT    7.70   8.48    4   98    5  61.2  65.7 1026.1 -9.9 -9.999 -99.9 -99.99 -9.99
2018/09/24 01:30 EDT    7.81   8.60    2   96    4  61.3  65.7 1026.2 -9.9 -9.999 -99.9 -99.99 -9.99
2018/09/24 01:36 EDT    7.92   8.70    3  116    5  61.2  65.7 1026.3 -9.9 -9.999 -99.9 -99.99 -9.99
2018/09/24 01:42 EDT    8.02   8.80    2  118    5  61.2  65.7 1026.3 -9.9 -9.999 -99.9 -99.99 -9.99
2018/09/24 01:48 EDT    8.11   8.89    1  113    3  61.3  65.7 1026.4 -9.9 -9.999 -99.9 -99.99 -9.99
2018/09/24 01:54 EDT    8.20   8.98    3  110    4  61.2  65.7 1026.4 -9.9 -9.999 -99.9 -99.99 -9.99
2018/09/24 02:00 EDT    8.29   9.07    3  101    5  61.2  65.7 1026.4 -9.9 -9.999 -99.9 -99.99 -9.99
2018/09/24 02:06 EDT    8.37   9.14    3   98    5  61.2  65.7 1026.2 -9.9 -9.999 -99.9 -99.99 -9.99
2018/09/24 02:12 EDT    8.44   9.21    3   98    6  61.2  65.7 1026.2 -9.9 -9.999 -99.9 -99.99 -9.99
2018/09/24 02:18 EDT    8.51   9.27    3   87    4  61.3  65.7 1026.2 -9.9 -9.999 -99.9 -99.99 -9.99
2018/09/24 02:24 EDT    8.56   9.32    3   91    5  61.3  65.7 1026.3 -9.9 -9.999 -99.9 -99.99 -9.99
2018/09/24 02:30 EDT    8.61   9.37    3   68    4  61.3  65.7 1026.3 -9.9 -9.999 -99.9 -99.99 -9.99
2018/09/24 02:36 EDT    8.64   9.40    2   73    4  61.3  65.7 1026.3 -9.9 -9.999 -99.9 -99.99 -9.99
2018/09/24 02:42 EDT    8.66   9.42    2   72    4  61.3  65.7 1026.3 -9.9 -9.999 -99.9 -99.99 -9.99
2018/09/24 02:48 EDT    8.67   9.43    3   71    4  61.3  65.7 1026.3 -9.9 -9.999 -99.9 -99.99 -9.99
2018/09/24 02:54 EDT    8.67   9.43    2   53    3  61.5  65.7 1026.3 -9.9 -9.999 -99.9 -99.99 -9.99
2018/09/24 03:00 EDT    8.65   9.43    1   69    2  61.5  65.7 1026.2 -9.9 -9.999 -99.9 -99.99 -9.99
2018/09/24 03:06 EDT    8.62   9.41    3   79    4  61.5  65.7 1026.2 -9.9 -9.999 -99.9 -99.99 -9.99
2018/09/24 03:12 EDT    8.58   9.37    4   78    5  61.3  65.7 1026.2 -9.9 -9.999 -99.9 -99.99 -9.99
2018/09/24 03:18 EDT    8.52   9.31    3   58    4  61.5  65.7 1026.3 -9.9 -9.999 -99.9 -99.99 -9.99
2018/09/24 03:24 EDT    8.45   9.25    4   69    5  61.5  65.8 1026.3 -9.9 -9.999 -99.9 -99.99 -9.99
2018/09/24 03:30 EDT    8.36   9.17    2   59    4  61.5  65.8 1026.5 -9.9 -9.999 -99.9 -99.99 -9.99
2018/09/24 03:36 EDT    8.26   9.08    3   65    4  61.5  65.8 1026.5 -9.9 -9.999 -99.9 -99.99 -9.99
2018/09/24 03:42 EDT    8.16   8.97    2   42    4  61.5  65.8 1026.5 -9.9 -9.999 -99.9 -99.99 -9.99
2018/09/24 03:48 EDT    8.03   8.86    4   55    6  61.5  65.8 1026.5 -9.9 -9.999 -99.9 -99.99 -9.99
2018/09/24 03:54 EDT    7.91   8.73    3   69    4  61.7  65.8 1026.5 -9.9 -9.999 -99.9 -99.99 -9.99
2018/09/24 04:00 EDT    7.77   8.59    3   79    4  61.7  65.8 1026.4 -9.9 -9.999 -99.9 -99.99 -9.99
2018/09/24 04:06 EDT    7.62   8.44    3   56    4  61.7  65.8 1026.5 -9.9 -9.999 -99.9 -99.99 -9.99
2018/09/24 04:12 EDT    7.47   8.29    3   57    5  61.7  65.8 1026.5 -9.9 -9.999 -99.9 -99.99 -9.99
2018/09/24 04:18 EDT    7.31   8.15    3   56    5  61.7  65.8 1026.6 -9.9 -9.999 -99.9 -99.99 -9.99
2018/09/24 04:24 EDT    7.15   8.00    3   50    5  61.7  65.8 1026.6 -9.9 -9.999 -99.9 -99.99 -9.99
2018/09/24 04:30 EDT    6.98   7.85    3   47    4  61.9  65.8 1026.7 -9.9 -9.999 -99.9 -99.99 -9.99
2018/09/24 04:36 EDT    6.81   7.69    3   63    5  61.9  65.8 1026.7 -9.9 -9.999 -99.9 -99.99 -9.99
2018/09/24 04:42 EDT    6.64   7.54    3   72    4  61.9  65.8 1026.9 -9.9 -9.999 -99.9 -99.99 -9.99
2018/09/24 04:48 EDT    6.47   7.39    2   90    4  61.9  65.8 1027.0 -9.9 -9.999 -99.9 -99.99 -9.99
2018/09/24 04:54 EDT    6.30   7.23    3   78    4  61.9  65.8 1027.0 -9.9 -9.999 -99.9 -99.99 -9.99
2018/09/24 05:00 EDT    6.13   7.07    2   59    4  62.1  65.8 1027.0 -9.9 -9.999 -99.9 -99.99 -9.99
2018/09/24 05:06 EDT    5.96   6.93    6   82    8  62.2  65.8 1027.0 -9.9 -9.999 -99.9 -99.99 -9.99
2018/09/24 05:12 EDT    5.79   6.79    3   73    6  62.1  65.8 1027.1 -9.9 -9.999 -99.9 -99.99 -9.99
2018/09/24 05:18 EDT    5.62   6.64    7   77   11  62.1  65.8 1027.2 -9.9 -9.999 -99.9 -99.99 -9.99
2018/09/24 05:24 EDT    5.45   6.50    7   91   12  61.9  65.8 1027.1 -9.9 -9.999 -99.9 -99.99 -9.99
2018/09/24 05:30 EDT    5.29   6.37    7  100   10  61.9  65.8 1027.1 -9.9 -9.999 -99.9 -99.99 -9.99
2018/09/24 05:36 EDT    5.13   6.23    5   84    8  61.9  65.8 1027.2 -9.9 -9.999 -99.9 -99.99 -9.99
2018/09/24 05:42 EDT    4.97   6.10    4  109    8  61.9  65.8 1027.2 -9.9 -9.999 -99.9 -99.99 -9.99
2018/09/24 05:48 EDT    4.81   5.96    4  115    7  62.1  65.8 1027.2 -9.9 -9.999 -99.9 -99.99 -9.99
2018/09/24 05:54 EDT    4.65   5.82    5  107    7  62.1  65.8 1027.3 -9.9 -9.999 -99.9 -99.99 -9.99
2018/09/24 06:00 EDT    4.50   5.70    3   95    6  62.2  65.8 1027.5 -9.9 -9.999 -99.9 -99.99 -9.99
2018/09/24 06:06 EDT    4.35   5.57    5   92    8  62.2  65.8 1027.6 -9.9 -9.999 -99.9 -99.99 -9.99
2018/09/24 06:12 EDT    4.20   5.45    4   87    7  62.2  65.8 1027.8 -9.9 -9.999 -99.9 -99.99 -9.99
2018/09/24 06:18 EDT    4.05   5.32    4   55    5  62.4  65.8 1027.7 -9.9 -9.999 -99.9 -99.99 -9.99
2018/09/24 06:24 EDT    3.91   5.20    2   59    5  62.4  65.8 1027.8 -9.9 -9.999 -99.9 -99.99 -9.99
2018/09/24 06:30 EDT    3.76   5.09    3   62    6  62.4  65.8 1027.9 -9.9 -9.999 -99.9 -99.99 -9.99
2018/09/24 06:36 EDT    3.62   4.97    3   39    5  62.1  65.8 1028.1 -9.9 -9.999 -99.9 -99.99 -9.99
2018/09/24 06:42 EDT    3.49   4.85    4   47    6  61.9  65.8 1028.2 -9.9 -9.999 -99.9 -99.99 -9.99
2018/09/24 06:48 EDT    3.35   4.73    4   57    6  61.7  65.8 1028.2 -9.9 -9.999 -99.9 -99.99 -9.99
2018/09/24 06:54 EDT    3.22   4.62    3   68    4  61.7  65.8 1028.2 -9.9 -9.999 -99.9 -99.99 -9.99
2018/09/24 07:00 EDT    3.10   4.51    4   58    6  61.9  65.8 1028.4 -9.9 -9.999 -99.9 -99.99 -9.99
2018/09/24 07:06 EDT    2.97   4.39    4   67    7  61.9  65.8 1028.3 -9.9 -9.999 -99.9 -99.99 -9.99
2018/09/24 07:12 EDT    2.85   4.28    3   62    5  61.9  65.8 1028.4 -9.9 -9.999 -99.9 -99.99 -9.99
2018/09/24 07:18 EDT    2.73   4.17    3   68    4  61.9  65.8 1028.5 -9.9 -9.999 -99.9 -99.99 -9.99
2018/09/24 07:24 EDT    2.62   4.06    3   81    7  62.1  65.8 1028.6 -9.9 -9.999 -99.9 -99.99 -9.99
2018/09/24 07:30 EDT    2.51   3.94    7   80   11  62.1  65.8 1028.6 -9.9 -9.999 -99.9 -99.99 -9.99
2018/09/24 07:36 EDT    2.40   3.83    7   90   10  62.1  65.8 1028.7 -9.9 -9.999 -99.9 -99.99 -9.99
2018/09/24 07:42 EDT    2.29   3.72    7   86   10  62.2  65.8 1028.9 -9.9 -9.999 -99.9 -99.99 -9.99
2018/09/24 07:48 EDT    2.18   3.60    6   88   10  62.1  65.8 1029.0 -9.9 -9.999 -99.9 -99.99 -9.99
2018/09/24 07:54 EDT    2.08   3.50    5   80   11  62.2  65.8 1029.1 -9.9 -9.999 -99.9 -99.99 -9.99
2018/09/24 08:00 EDT    1.98   3.40    5   77    7  62.1  65.8 1029.3 -9.9 -9.999 -99.9 -99.99 -9.99
2018/09/24 08:06 EDT    1.88   3.28    5   86   10  62.1  65.8 1029.4 -9.9 -9.999 -99.9 -99.99 -9.99
2018/09/24 08:12 EDT    1.77   3.18    4   84    7  62.1  65.8 1029.5 -9.9 -9.999 -99.9 -99.99 -9.99
2018/09/24 08:18 EDT    1.67   3.08    6   80    8  62.1  65.8 1029.7 -9.9 -9.999 -99.9 -99.99 -9.99
2018/09/24 08:24 EDT    1.57   2.97    6   82    9  62.1  65.8 1029.8 -9.9 -9.999 -99.9 -99.99 -9.99
2018/09/24 08:30 EDT    1.48   2.87    4   66    8  62.1  65.8 1029.9 -9.9 -9.999 -99.9 -99.99 -9.99
2018/09/24 08:36 EDT    1.38   2.76    4   80    7  61.9  65.8 1029.9 -9.9 -9.999 -99.9 -99.99 -9.99
2018/09/24 08:42 EDT    1.28   2.65    9   85   13  61.9  65.8 1029.9 -9.9 -9.999 -99.9 -99.99 -9.99
2018/09/24 08:48 EDT    1.19   2.55    9   81   13  61.7  65.8 1029.9 -9.9 -9.999 -99.9 -99.99 -9.99
2018/09/24 08:54 EDT    1.09   2.46    9   86   13  61.7  65.8 1030.0 -9.9 -9.999 -99.9 -99.99 -9.99
2018/09/24 09:00 EDT    1.01   2.37    9   91   14  61.7  65.8 1030.1 -9.9 -9.999 -99.9 -99.99 -9.99
2018/09/24 09:06 EDT    0.92   2.27    9   92   15  61.7  65.8 1030.1 -9.9 -9.999 -99.9 -99.99 -9.99
2018/09/24 09:12 EDT    0.84   2.18    9   79   15  61.9  65.8 1030.2 -9.9 -9.999 -99.9 -99.99 -9.99
2018/09/24 09:18 EDT    0.77   2.09    7   95   12  62.1  65.8 1030.3 -9.9 -9.999 -99.9 -99.99 -9.99
2018/09/24 09:24 EDT    0.71   2.00   10   83   13  61.9  65.8 1030.2 -9.9 -9.999 -99.9 -99.99 -9.99
2018/09/24 09:30 EDT    0.66   1.90    8   82   15  61.9  65.8 1030.3 -9.9 -9.999 -99.9 -99.99 -9.99
2018/09/24 09:36 EDT    0.62   1.81   10   87   15  62.1  65.8 1030.4 -9.9 -9.999 -99.9 -99.99 -9.99
2018/09/24 09:42 EDT    0.59   1.73   11   87   15  61.9  65.8 1030.3 -9.9 -9.999 -99.9 -99.99 -9.99
2018/09/24 09:48 EDT    0.58   1.65    9   94   13  62.2  65.8 1030.4 -9.9 -9.999 -99.9 -99.99 -9.99
2018/09/24 09:54 EDT    0.58   1.59    8   94   13  62.4  65.8 1030.6 -9.9 -9.999 -99.9 -99.99 -9.99
2018/09/24 10:00 EDT    0.60   1.53    8   85   13  62.6  65.8 1030.6 -9.9 -9.999 -99.9 -99.99 -9.99
2018/09/24 10:06 EDT    0.63   1.47    5   86   13  63.1  65.8 1030.6 -9.9 -9.999 -99.9 -99.99 -9.99
2018/09/24 10:12 EDT    0.69   1.44    7   76   13  63.3  65.8 1030.7 -9.9 -9.999 -99.9 -99.99 -9.99
2018/09/24 10:18 EDT    0.76   1.42    8   75   12  63.5  65.8 1030.7 -9.9 -9.999 -99.9 -99.99 -9.99
2018/09/24 10:24 EDT    0.86   1.42    9   90   14  63.7  65.8 1030.8 -9.9 -9.999 -99.9 -99.99 -9.99
2018/09/24 10:30 EDT    0.97   1.46    8   88   12  64.0  65.8 1030.8 -9.9 -9.999 -99.9 -99.99 -9.99
2018/09/24 10:36 EDT    1.11   1.55    7   85   14  64.2  65.8 1030.8 -9.9 -9.999 -99.9 -99.99 -9.99
2018/09/24 10:42 EDT    1.26   1.71    7   81   13  64.6  65.8 1030.9 -9.9 -9.999 -99.9 -99.99 -9.99
2018/09/24 10:48 EDT    1.43   1.95    7   90   12  64.8  65.8 1030.9 -9.9 -9.999 -99.9 -99.99 -9.99
2018/09/24 10:54 EDT    1.62   2.24    7   98   10  64.8  65.8 1030.8 -9.9 -9.999 -99.9 -99.99 -9.99
2018/09/24 11:00 EDT    1.82   2.53   11   86   15  64.8  65.7 1030.9 -9.9 -9.999 -99.9 -99.99 -9.99
2018/09/24 11:06 EDT    2.04   2.81    9   93   14  64.9  65.7 1030.8 -9.9 -9.999 -99.9 -99.99 -9.99
2018/09/24 11:12 EDT    2.27   3.08    6   86   12  65.3  65.7 1030.9 -9.9 -9.999 -99.9 -99.99 -9.99
2018/09/24 11:18 EDT    2.51   3.34   10   79   16  65.1  65.7 1030.9 -9.9 -9.999 -99.9 -99.99 -9.99
2018/09/24 11:24 EDT    2.76   3.61    9   77   15  65.3  65.7 1030.8 -9.9 -9.999 -99.9 -99.99 -9.99
2018/09/24 11:30 EDT    3.01   3.90    8   92   12  65.1  65.5 1030.8 -9.9 -9.999 -99.9 -99.99 -9.99
2018/09/24 11:36 EDT    3.27   4.20    9   92   13  64.9  65.5 1030.8 -9.9 -9.999 -99.9 -99.99 -9.99
2018/09/24 11:42 EDT    3.52   4.51   10   83   15  65.3  65.5 1030.8 -9.9 -9.999 -99.9 -99.99 -9.99
2018/09/24 11:48 EDT    3.78   4.84    8   79   13  65.5  65.5 1030.7 -9.9 -9.999 -99.9 -99.99 -9.99
2018/09/24 11:54 EDT    4.03   5.16    7   84   13  65.5  65.5 1030.8 -9.9 -9.999 -99.9 -99.99 -9.99
2018/09/24 12:00 EDT    4.28   5.46    9   89   11  65.5  65.5 1030.8 -9.9 -9.999 -99.9 -99.99 -9.99
2018/09/24 12:06 EDT    4.53   5.74    7   83   13  65.7  65.5 1030.7 -9.9 -9.999 -99.9 -99.99 -9.99
2018/09/24 12:12 EDT    4.76   5.98    6   99   10  66.0  65.3 1030.9 -9.9 -9.999 -99.9 -99.99 -9.99
2018/09/24 12:18 EDT    4.99   6.21    8   82   14  66.0  65.3 1030.8 -9.9 -9.999 -99.9 -99.99 -9.99
2018/09/24 12:24 EDT    5.21   6.42    7   92   11  66.0  65.3 1030.9 -9.9 -9.999 -99.9 -99.99 -9.99
2018/09/24 12:30 EDT    5.42   6.61    7   81   10  66.2  65.3 1030.8 -9.9 -9.999 -99.9 -99.99 -9.99
2018/09/24 12:36 EDT    5.62   6.79    8   80   13  66.6  65.3 1030.8 -9.9 -9.999 -99.9 -99.99 -9.99
2018/09/24 12:42 EDT    5.81   6.96    7   80   11  66.6  65.3 1030.9 -9.9 -9.999 -99.9 -99.99 -9.99
2018/09/24 12:48 EDT    5.98   7.13    6   94   12  66.9  65.3 1030.9 -9.9 -9.999 -99.9 -99.99 -9.99
2018/09/24 12:54 EDT    6.15   7.28    9   94   12  66.9  65.3 1031.0 -9.9 -9.999 -99.9 -99.99 -9.99
2018/09/24 13:00 EDT    6.31   7.43    9  105   15  67.1  65.3 1030.9 -9.9 -9.999 -99.9 -99.99 -9.99
2018/09/24 13:06 EDT    6.47   7.57   10  106   14  67.1  65.3 1030.9 -9.9 -9.999 -99.9 -99.99 -9.99
2018/09/24 13:12 EDT    6.61   7.71   11   97   15  67.5  65.3 1030.8 -9.9 -9.999 -99.9 -99.99 -9.99
2018/09/24 13:18 EDT    6.75   7.83   10  101   18  67.6  65.3 1030.9 -9.9 -9.999 -99.9 -99.99 -9.99
2018/09/24 13:24 EDT    6.88   7.94   12  103   16  67.8  65.3 1030.7 -9.9 -9.999 -99.9 -99.99 -9.99
2018/09/24 13:30 EDT    7.01   8.06   10  106   16  67.6  65.3 1030.6 -9.9 -9.999 -99.9 -99.99 -9.99
2018/09/24 13:36 EDT    7.13   8.16   11  115   19  67.3  65.3 1030.6 -9.9 -9.999 -99.9 -99.99 -9.99
2018/09/24 13:42 EDT    7.25   8.26    9  109   15  67.5  65.3 1030.5 -9.9 -9.999 -99.9 -99.99 -9.99
2018/09/24 13:48 EDT    7.36   8.36   10   99   16  67.6  65.3 1030.6 -9.9 -9.999 -99.9 -99.99 -9.99
2018/09/24 13:54 EDT    7.47   8.45   11   93   14  67.5  65.3 1030.7 -9.9 -9.999 -99.9 -99.99 -9.99
2018/09/24 14:00 EDT    7.58   8.54    9   95   17  67.3  65.3 1030.6 -9.9 -9.999 -99.9 -99.99 -9.99
2018/09/24 14:06 EDT    7.68   8.62   11   96   19  67.3  65.3 1030.5 -9.9 -9.999 -99.9 -99.99 -9.99
2018/09/24 14:12 EDT    7.78   8.69   10  101   14  67.1  65.3 1030.6 -9.9 -9.999 -99.9 -99.99 -9.99
2018/09/24 14:18 EDT    7.87   8.76   10  100   13  67.1  65.3 1030.6 -9.9 -9.999 -99.9 -99.99 -9.99
2018/09/24 14:24 EDT    7.96   8.82    7  114   14  67.1  65.3 1030.8 -9.9 -9.999 -99.9 -99.99 -9.99
2018/09/24 14:30 EDT    8.04   8.88    7  105   12  67.1  65.3 1030.7 -9.9 -9.999 -99.9 -99.99 -9.99
2018/09/24 14:36 EDT    8.12   8.93    4  120   12  67.1  65.3 1030.8 -9.9 -9.999 -99.9 -99.99 -9.99
2018/09/24 14:42 EDT    8.19   8.98    6  108   11  67.1  65.3 1030.8 -9.9 -9.999 -99.9 -99.99 -9.99
2018/09/24 14:48 EDT    8.25   9.02    4  107   12  67.3  65.3 1030.8 -9.9 -9.999 -99.9 -99.99 -9.99
2018/09/24 14:54 EDT    8.30   9.06    9  107   12  67.1  65.3 1030.9 -9.9 -9.999 -99.9 -99.99 -9.99
2018/09/24 15:00 EDT    8.34   9.08    6  120   13  66.7  65.3 1030.8 -9.9 -9.999 -99.9 -99.99 -9.99
2018/09/24 15:06 EDT    8.37   9.09    5  105   10  66.9  65.3 1030.8 -9.9 -9.999 -99.9 -99.99 -9.99
2018/09/24 15:12 EDT    8.38   9.09    6  100   12  67.1  65.3 1030.7 -9.9 -9.999 -99.9 -99.99 -9.99
2018/09/24 15:18 EDT    8.38   9.09   10  107   15  66.7  65.3 1030.7 -9.9 -9.999 -99.9 -99.99 -9.99
2018/09/24 15:24 EDT    8.37   9.07    9  120   13  66.6  65.3 1030.7 -9.9 -9.999 -99.9 -99.99 -9.99
2018/09/24 15:30 EDT    8.35   9.04    6  119   15  66.6  65.3 1030.8 -9.9 -9.999 -99.9 -99.99 -9.99
2018/09/24 15:36 EDT    8.31   9.01    8  102   17  66.6  65.3 1030.8 -9.9 -9.999 -99.9 -99.99 -9.99
2018/09/24 15:42 EDT    8.26   8.96    8  113   17  66.4  65.3 1030.6 -9.9 -9.999 -99.9 -99.99 -9.99
2018/09/24 15:48 EDT    8.19   8.89    9  106   14  66.4  65.3 1030.5 -9.9 -9.999 -99.9 -99.99 -9.99
2018/09/24 15:54 EDT    8.11   8.82   10  104   14  66.4  65.3 1030.5 -9.9 -9.999 -99.9 -99.99 -9.99
2018/09/24 16:00 EDT    8.02 -99.99 -999 -999 -999 -99.9 -99.9 -999.9 -9.9 -9.999 -99.9 -99.99 -9.99
2018/09/24 16:06 EDT    7.91 -99.99 -999 -999 -999 -99.9 -99.9 -999.9 -9.9 -9.999 -99.9 -99.99 -9.99
2018/09/24 16:12 EDT    7.80 -99.99 -999 -999 -999 -99.9 -99.9 -999.9 -9.9 -9.999 -99.9 -99.99 -9.99
2018/09/24 16:18 EDT    7.67 -99.99 -999 -999 -999 -99.9 -99.9 -999.9 -9.9 -9.999 -99.9 -99.99 -9.99
2018/09/24 16:24 EDT    7.54 -99.99 -999 -999 -999 -99.9 -99.9 -999.9 -9.9 -9.999 -99.9 -99.99 -9.99
2018/09/24 16:30 EDT    7.40 -99.99 -999 -999 -999 -99.9 -99.9 -999.9 -9.9 -9.999 -99.9 -99.99 -9.99
2018/09/24 16:36 EDT    7.25 -99.99 -999 -999 -999 -99.9 -99.9 -999.9 -9.9 -9.999 -99.9 -99.99 -9.99
2018/09/24 16:42 EDT    7.09 -99.99 -999 -999 -999 -99.9 -99.9 -999.9 -9.9 -9.999 -99.9 -99.99 -9.99
2018/09/24 16:48 EDT    6.93 -99.99 -999 -999 -999 -99.9 -99.9 -999.9 -9.9 -9.999 -99.9 -99.99 -9.99
2018/09/24 16:54 EDT    6.76 -99.99 -999 -999 -999 -99.9 -99.9 -999.9 -9.9 -9.999 -99.9 -99.99 -9.99
2018/09/24 17:00 EDT    6.60 -99.99 -999 -999 -999 -99.9 -99.9 -999.9 -9.9 -9.999 -99.9 -99.99 -9.99
2018/09/24 17:06 EDT    6.43 -99.99 -999 -999 -999 -99.9 -99.9 -999.9 -9.9 -9.999 -99.9 -99.99 -9.99
2018/09/24 17:12 EDT    6.26 -99.99 -999 -999 -999 -99.9 -99.9 -999.9 -9.9 -9.999 -99.9 -99.99 -9.99
2018/09/24 17:18 EDT    6.08 -99.99 -999 -999 -999 -99.9 -99.9 -999.9 -9.9 -9.999 -99.9 -99.99 -9.99
2018/09/24 17:24 EDT    5.91 -99.99 -999 -999 -999 -99.9 -99.9 -999.9 -9.9 -9.999 -99.9 -99.99 -9.99
2018/09/24 17:30 EDT    5.74 -99.99 -999 -999 -999 -99.9 -99.9 -999.9 -9.9 -9.999 -99.9 -99.99 -9.99
2018/09/24 17:36 EDT    5.57 -99.99 -999 -999 -999 -99.9 -99.9 -999.9 -9.9 -9.999 -99.9 -99.99 -9.99
2018/09/24 17:42 EDT    5.40 -99.99 -999 -999 -999 -99.9 -99.9 -999.9 -9.9 -9.999 -99.9 -99.99 -9.99
2018/09/24 17:48 EDT    5.24 -99.99 -999 -999 -999 -99.9 -99.9 -999.9 -9.9 -9.999 -99.9 -99.99 -9.99
2018/09/24 17:54 EDT    5.07 -99.99 -999 -999 -999 -99.9 -99.9 -999.9 -9.9 -9.999 -99.9 -99.99 -9.99
2018/09/24 18:00 EDT    4.91 -99.99 -999 -999 -999 -99.9 -99.9 -999.9 -9.9 -9.999 -99.9 -99.99 -9.99
2018/09/24 18:06 EDT    4.74 -99.99 -999 -999 -999 -99.9 -99.9 -999.9 -9.9 -9.999 -99.9 -99.99 -9.99
2018/09/24 18:12 EDT    4.58 -99.99 -999 -999 -999 -99.9 -99.9 -999.9 -9.9 -9.999 -99.9 -99.99 -9.99
2018/09/24 18:18 EDT    4.43 -99.99 -999 -999 -999 -99.9 -99.9 -999.9 -9.9 -9.999 -99.9 -99.99 -9.99
2018/09/24 18:24 EDT    4.27 -99.99 -999 -999 -999 -99.9 -99.9 -999.9 -9.9 -9.999 -99.9 -99.99 -9.99
2018/09/24 18:30 EDT    4.12 -99.99 -999 -999 -999 -99.9 -99.9 -999.9 -9.9 -9.999 -99.9 -99.99 -9.99
2018/09/24 18:36 EDT    3.96 -99.99 -999 -999 -999 -99.9 -99.9 -999.9 -9.9 -9.999 -99.9 -99.99 -9.99
2018/09/24 18:42 EDT    3.81 -99.99 -999 -999 -999 -99.9 -99.9 -999.9 -9.9 -9.999 -99.9 -99.99 -9.99
2018/09/24 18:48 EDT    3.67 -99.99 -999 -999 -999 -99.9 -99.9 -999.9 -9.9 -9.999 -99.9 -99.99 -9.99
2018/09/24 18:54 EDT    3.52 -99.99 -999 -999 -999 -99.9 -99.9 -999.9 -9.9 -9.999 -99.9 -99.99 -9.99
2018/09/24 19:00 EDT    3.38 -99.99 -999 -999 -999 -99.9 -99.9 -999.9 -9.9 -9.999 -99.9 -99.99 -9.99
2018/09/24 19:06 EDT    3.24 -99.99 -999 -999 -999 -99.9 -99.9 -999.9 -9.9 -9.999 -99.9 -99.99 -9.99
2018/09/24 19:12 EDT    3.11 -99.99 -999 -999 -999 -99.9 -99.9 -999.9 -9.9 -9.999 -99.9 -99.99 -9.99
2018/09/24 19:18 EDT    2.98 -99.99 -999 -999 -999 -99.9 -99.9 -999.9 -9.9 -9.999 -99.9 -99.99 -9.99
2018/09/24 19:24 EDT    2.85 -99.99 -999 -999 -999 -99.9 -99.9 -999.9 -9.9 -9.999 -99.9 -99.99 -9.99
2018/09/24 19:30 EDT    2.73 -99.99 -999 -999 -999 -99.9 -99.9 -999.9 -9.9 -9.999 -99.9 -99.99 -9.99
2018/09/24 19:36 EDT    2.61 -99.99 -999 -999 -999 -99.9 -99.9 -999.9 -9.9 -9.999 -99.9 -99.99 -9.99
2018/09/24 19:42 EDT    2.49 -99.99 -999 -999 -999 -99.9 -99.9 -999.9 -9.9 -9.999 -99.9 -99.99 -9.99
2018/09/24 19:48 EDT    2.38 -99.99 -999 -999 -999 -99.9 -99.9 -999.9 -9.9 -9.999 -99.9 -99.99 -9.99
2018/09/24 19:54 EDT    2.27 -99.99 -999 -999 -999 -99.9 -99.9 -999.9 -9.9 -9.999 -99.9 -99.99 -9.99
2018/09/24 20:00 EDT    2.16 -99.99 -999 -999 -999 -99.9 -99.9 -999.9 -9.9 -9.999 -99.9 -99.99 -9.99
2018/09/24 20:06 EDT    2.06 -99.99 -999 -999 -999 -99.9 -99.9 -999.9 -9.9 -9.999 -99.9 -99.99 -9.99
2018/09/24 20:12 EDT    1.96 -99.99 -999 -999 -999 -99.9 -99.9 -999.9 -9.9 -9.999 -99.9 -99.99 -9.99
2018/09/24 20:18 EDT    1.86 -99.99 -999 -999 -999 -99.9 -99.9 -999.9 -9.9 -9.999 -99.9 -99.99 -9.99
2018/09/24 20:24 EDT    1.76 -99.99 -999 -999 -999 -99.9 -99.9 -999.9 -9.9 -9.999 -99.9 -99.99 -9.99
2018/09/24 20:30 EDT    1.67 -99.99 -999 -999 -999 -99.9 -99.9 -999.9 -9.9 -9.999 -99.9 -99.99 -9.99
2018/09/24 20:36 EDT    1.57 -99.99 -999 -999 -999 -99.9 -99.9 -999.9 -9.9 -9.999 -99.9 -99.99 -9.99
2018/09/24 20:42 EDT    1.48 -99.99 -999 -999 -999 -99.9 -99.9 -999.9 -9.9 -9.999 -99.9 -99.99 -9.99
2018/09/24 20:48 EDT    1.40 -99.99 -999 -999 -999 -99.9 -99.9 -999.9 -9.9 -9.999 -99.9 -99.99 -9.99
2018/09/24 20:54 EDT    1.31 -99.99 -999 -999 -999 -99.9 -99.9 -999.9 -9.9 -9.999 -99.9 -99.99 -9.99
2018/09/24 21:00 EDT    1.22 -99.99 -999 -999 -999 -99.9 -99.9 -999.9 -9.9 -9.999 -99.9 -99.99 -9.99
2018/09/24 21:06 EDT    1.14 -99.99 -999 -999 -999 -99.9 -99.9 -999.9 -9.9 -9.999 -99.9 -99.99 -9.99
2018/09/24 21:12 EDT    1.06 -99.99 -999 -999 -999 -99.9 -99.9 -999.9 -9.9 -9.999 -99.9 -99.99 -9.99
2018/09/24 21:18 EDT    0.99 -99.99 -999 -999 -999 -99.9 -99.9 -999.9 -9.9 -9.999 -99.9 -99.99 -9.99
2018/09/24 21:24 EDT    0.92 -99.99 -999 -999 -999 -99.9 -99.9 -999.9 -9.9 -9.999 -99.9 -99.99 -9.99
2018/09/24 21:30 EDT    0.85 -99.99 -999 -999 -999 -99.9 -99.9 -999.9 -9.9 -9.999 -99.9 -99.99 -9.99
2018/09/24 21:36 EDT    0.79 -99.99 -999 -999 -999 -99.9 -99.9 -999.9 -9.9 -9.999 -99.9 -99.99 -9.99
2018/09/24 21:42 EDT    0.74 -99.99 -999 -999 -999 -99.9 -99.9 -999.9 -9.9 -9.999 -99.9 -99.99 -9.99
2018/09/24 21:48 EDT    0.70 -99.99 -999 -999 -999 -99.9 -99.9 -999.9 -9.9 -9.999 -99.9 -99.99 -9.99
2018/09/24 21:54 EDT    0.67 -99.99 -999 -999 -999 -99.9 -99.9 -999.9 -9.9 -9.999 -99.9 -99.99 -9.99

Revised: 08/08/2018
NOAA / National Ocean Service
Web site owner: Center for Operational Oceanographic Products and Services